Time;durP1;ratioP1;P1;durP2;ratioP2;P2;SDS_P1;SDS_P2;PMS_P1;PMS_P2;Temp;Humidity;BMP_temperature;BMP_pressure;BME280_temperature;BME280_humidity;BME280_pressure;Samples;Min_cycle;Max_cycle;Signal;HPM_P1;HPM_P2
2022/05/12 00:01:25;;;;;;;6.77;2.60;;;21.70;64.70;;;;;;5051670;28;20252;-87
2022/05/12 00:03:51;;;;;;;3.60;2.73;;;21.80;63.70;;;;;;5069628;28;20190;-86
2022/05/12 00:06:17;;;;;;;2.27;1.90;;;21.70;64.70;;;;;;5034730;28;20199;-87
2022/05/12 00:08:42;;;;;;;2.97;2.60;;;21.70;65.10;;;;;;5034816;28;20210;-87
2022/05/12 00:11:08;;;;;;;3.27;2.77;;;21.50;66.60;;;;;;5034861;28;20209;-89
2022/05/12 00:13:34;;;;;;;8.40;2.20;;;21.60;64.50;;;;;;5069578;28;20635;-87
2022/05/12 00:16:01;;;;;;;4.33;2.57;;;21.80;64.60;;;;;;5034791;28;20448;-87
2022/05/12 00:18:27;;;;;;;4.33;2.50;;;21.70;65.20;;;;;;5034962;28;20247;-86
2022/05/12 00:20:54;;;;;;;2.70;2.20;;;21.60;65.60;;;;;;5051650;28;20422;-87
2022/05/12 00:23:23;;;;;;;3.57;2.43;;;21.50;66.30;;;;;;5034781;28;20437;-86
2022/05/12 00:25:50;;;;;;;2.93;2.53;;;21.40;68.40;;;;;;5051414;28;20473;-87
2022/05/12 00:28:20;;;;;;;2.90;2.60;;;21.30;67.60;;;;;;5069208;28;20483;-85
2022/05/12 00:30:48;;;;;;;3.57;2.30;;;21.20;67.50;;;;;;5050780;28;20453;-85
2022/05/12 00:33:14;;;;;;;7.67;2.33;;;21.30;66.00;;;;;;5051055;28;20418;-85
2022/05/12 00:35:42;;;;;;;3.13;2.30;;;21.30;68.20;;;;;;5050747;28;20437;-86
2022/05/12 00:38:08;;;;;;;3.03;2.33;;;21.10;68.10;;;;;;5068797;28;20425;-85
2022/05/12 00:40:34;;;;;;;2.77;2.57;;;21.00;70.20;;;;;;5051138;28;20432;-86
2022/05/12 00:43:06;;;;;;;7.40;2.47;;;20.90;68.00;;;;;;5017742;28;21091;-84
2022/05/12 00:45:38;;;;;;;5.33;2.93;;;21.00;67.10;;;;;;5050735;28;20568;-85
2022/05/12 00:48:05;;;;;;;4.10;2.20;;;21.00;66.50;;;;;;5050828;28;20569;-87
2022/05/12 00:50:43;;;;;;;4.60;2.57;;;21.00;68.10;;;;;;5017807;28;20441;-85
2022/05/12 00:53:11;;;;;;;3.70;2.50;;;21.00;66.70;;;;;;5050490;28;20425;-86
2022/05/12 00:55:41;;;;;;;4.83;3.00;;;21.00;66.30;;;;;;5050478;28;20967;-84
2022/05/12 00:58:10;;;;;;;5.30;2.70;;;20.90;68.00;;;;;;5050528;28;20429;-85
2022/05/12 01:00:37;;;;;;;4.13;2.70;;;20.90;69.40;;;;;;5034021;28;20433;-85
2022/05/12 01:03:08;;;;;;;8.20;2.90;;;20.80;68.90;;;;;;5033884;28;20425;-84
2022/05/12 01:05:34;;;;;;;4.30;3.00;;;20.50;70.60;;;;;;5050249;28;20970;-86
2022/05/12 01:08:00;;;;;;;2.67;2.17;;;20.40;71.60;;;;;;5034052;28;20461;-87
2022/05/12 01:10:27;;;;;;;4.50;2.80;;;20.40;68.70;;;;;;5050622;28;20187;-85
2022/05/12 01:12:53;;;;;;;3.57;2.50;;;20.50;69.50;;;;;;5068998;28;20420;-86
2022/05/12 01:15:24;;;;;;;4.90;3.43;;;20.60;68.10;;;;;;5034280;28;20571;-85
2022/05/12 01:17:50;;;;;;;4.70;2.53;;;20.60;66.90;;;;;;5051387;28;20425;-84
2022/05/12 01:20:17;;;;;;;5.27;2.87;;;20.70;67.30;;;;;;5069132;28;20483;-87
2022/05/12 01:23:04;;;;;;;3.60;2.53;;;20.70;67.40;;;;;;5034651;28;20432;-87
2022/05/12 01:25:31;;;;;;;5.90;2.53;;;20.70;66.80;;;;;;5051471;28;20957;-86
2022/05/12 01:27:57;;;;;;;4.90;2.30;;;20.80;66.10;;;;;;5051491;28;20464;-87
2022/05/12 01:30:25;;;;;;;3.30;2.67;;;20.80;66.80;;;;;;5052635;28;20413;-87
2022/05/12 01:32:51;;;;;;;4.87;2.00;;;20.70;67.80;;;;;;5073236;28;20411;-87
2022/05/12 01:35:24;;;;;;;8.43;2.23;;;20.80;66.40;;;;;;5055135;28;20951;-87
2022/05/12 01:37:50;;;;;;;3.57;2.43;;;20.70;67.90;;;;;;5073504;28;20955;-89
2022/05/12 01:40:21;;;;;;;7.53;2.20;;;20.70;66.10;;;;;;5055346;28;20425;-87
2022/05/12 01:42:48;;;;;;;5.70;2.30;;;20.70;66.40;;;;;;5054887;28;20509;-86
2022/05/12 01:45:15;;;;;;;2.70;2.20;;;20.70;65.80;;;;;;5054966;28;20456;-84
2022/05/12 01:47:41;;;;;;;3.00;2.00;;;20.70;66.10;;;;;;5038258;28;20998;-85
2022/05/12 01:50:09;;;;;;;3.93;2.73;;;20.70;65.60;;;;;;5054186;28;20437;-86
2022/05/12 01:52:37;;;;;;;5.37;2.27;;;20.70;65.40;;;;;;5055110;28;20429;-86
2022/05/12 01:55:04;;;;;;;3.30;2.20;;;20.70;65.60;;;;;;5054502;28;20477;-87
2022/05/12 01:57:30;;;;;;;8.10;1.93;;;20.70;65.60;;;;;;5037937;28;20431;-86
2022/05/12 01:59:56;;;;;;;4.40;2.90;;;20.80;64.80;;;;;;5054821;28;20923;-83
2022/05/12 02:02:23;;;;;;;4.80;2.50;;;20.90;64.50;;;;;;5054114;28;20194;-86
2022/05/12 02:04:50;;;;;;;10.67;2.60;;;20.80;64.70;;;;;;5054803;28;20485;-84
2022/05/12 02:07:18;;;;;;;4.20;2.30;;;20.80;64.00;;;;;;5054368;28;20468;-85
2022/05/12 02:09:44;;;;;;;5.10;2.53;;;20.80;63.60;;;;;;5054487;28;20277;-85
2022/05/12 02:12:10;;;;;;;2.80;2.47;;;20.80;65.10;;;;;;5020720;28;20512;-85
2022/05/12 02:14:36;;;;;;;4.40;2.10;;;20.70;64.70;;;;;;5020645;28;20189;-86
2022/05/12 02:17:02;;;;;;;4.20;2.20;;;20.70;64.20;;;;;;5053681;28;20811;-85
2022/05/12 02:19:29;;;;;;;6.40;2.20;;;20.70;64.70;;;;;;5037214;28;20191;-86
2022/05/12 02:21:55;;;;;;;5.20;2.27;;;20.60;66.30;;;;;;5037822;28;20508;-86
2022/05/12 02:24:21;;;;;;;2.40;1.90;;;20.50;66.40;;;;;;5071529;28;20504;-84
2022/05/12 02:26:47;;;;;;;3.67;2.30;;;20.50;65.20;;;;;;5053360;28;20444;-84
2022/05/12 02:29:13;;;;;;;2.10;1.80;;;20.60;64.80;;;;;;5053134;28;20468;-84
2022/05/12 02:31:38;;;;;;;2.50;2.10;;;20.50;67.00;;;;;;5036534;28;21004;-85
2022/05/12 02:34:04;;;;;;;6.30;2.33;;;20.60;66.00;;;;;;5052904;28;20189;-85
2022/05/12 02:36:30;;;;;;;3.87;2.83;;;20.50;65.40;;;;;;5052468;28;20199;-86
2022/05/12 02:38:56;;;;;;;3.10;2.17;;;20.60;65.10;;;;;;5036483;28;20469;-83
2022/05/12 02:41:22;;;;;;;2.27;2.00;;;20.50;66.30;;;;;;5035924;28;20262;-83
2022/05/12 02:43:47;;;;;;;3.73;2.13;;;20.50;67.50;;;;;;5036231;28;20934;-84
2022/05/12 02:46:15;;;;;;;3.90;2.73;;;20.40;66.50;;;;;;5052738;28;20341;-84
2022/05/12 02:48:43;;;;;;;4.53;2.17;;;20.30;67.20;;;;;;5053054;28;20274;-85
2022/05/12 02:51:09;;;;;;;4.70;2.17;;;20.30;66.50;;;;;;5052884;28;20455;-85
2022/05/12 02:53:36;;;;;;;4.50;2.30;;;20.40;66.50;;;;;;5052761;28;20935;-85
2022/05/12 02:56:03;;;;;;;3.23;1.83;;;20.40;66.80;;;;;;5052842;28;20245;-85
2022/05/12 02:58:29;;;;;;;2.90;2.30;;;20.30;67.30;;;;;;5036175;28;20563;-85
2022/05/12 03:00:56;;;;;;;7.30;2.13;;;20.30;67.90;;;;;;5036069;28;20442;-84
2022/05/12 03:03:21;;;;;;;7.93;2.20;;;20.30;68.30;;;;;;5052909;28;20432;-85
2022/05/12 03:05:51;;;;;;;3.13;2.47;;;20.20;68.90;;;;;;5052585;28;20452;-86
2022/05/12 03:08:17;;;;;;;10.10;2.43;;;20.10;68.80;;;;;;5036246;28;20755;-85
2022/05/12 03:10:45;;;;;;;4.20;2.17;;;20.10;70.10;;;;;;5052647;28;20424;-87
2022/05/12 03:13:10;;;;;;;3.37;2.13;;;20.10;70.40;;;;;;5036679;28;20429;-84
2022/05/12 03:15:37;;;;;;;6.07;2.43;;;20.10;70.20;;;;;;5052685;28;20455;-84
2022/05/12 03:18:03;;;;;;;10.63;2.07;;;20.00;70.80;;;;;;5070921;28;20190;-84
2022/05/12 03:20:32;;;;;;;7.70;2.30;;;20.00;70.60;;;;;;5036243;28;20793;-83
2022/05/12 03:22:59;;;;;;;2.40;2.17;;;20.00;70.60;;;;;;5070743;28;20185;-86
2022/05/12 03:25:24;;;;;;;4.87;2.30;;;20.00;70.90;;;;;;5071020;28;20437;-85
2022/05/12 03:27:50;;;;;;;7.93;2.60;;;20.00;71.30;;;;;;5052954;28;20579;-86
2022/05/12 03:30:22;;;;;;;3.93;2.30;;;20.00;71.50;;;;;;5071110;28;20167;-84
2022/05/12 03:32:48;;;;;;;4.57;2.10;;;19.90;72.10;;;;;;5053104;28;20187;-83
2022/05/12 03:35:14;;;;;;;6.17;2.57;;;19.90;71.90;;;;;;5070263;28;20952;-84
2022/05/12 03:37:40;;;;;;;4.83;2.10;;;19.90;72.30;;;;;;5052671;28;20423;-84
2022/05/12 03:40:10;;;;;;;2.13;1.97;;;19.90;72.30;;;;;;5035749;28;20225;-84
2022/05/12 03:42:37;;;;;;;4.33;2.20;;;19.90;73.40;;;;;;5070096;28;20419;-86
2022/05/12 03:45:03;;;;;;;3.30;2.87;;;19.80;72.70;;;;;;5036063;28;20538;-86
2022/05/12 03:47:34;;;;;;;3.63;2.17;;;19.90;72.40;;;;;;5036032;28;20471;-85
2022/05/12 03:50:04;;;;;;;2.47;2.20;;;19.80;73.60;;;;;;5052624;28;20860;-85
2022/05/12 03:52:31;;;;;;;4.27;2.53;;;19.80;75.00;;;;;;5053173;28;20423;-85
2022/05/12 03:54:57;;;;;;;2.13;2.03;;;19.70;76.40;;;;;;5034968;28;20485;-86
2022/05/12 03:57:25;;;;;;;11.43;3.00;;;19.50;78.10;;;;;;5070283;28;20419;-84
2022/05/12 03:59:51;;;;;;;5.73;3.10;;;19.20;82.30;;;;;;5071166;28;20505;-86
2022/05/12 04:02:18;;;;;;;4.87;3.27;;;18.90;87.00;;;;;;5020714;28;20417;-86
2022/05/12 04:04:47;;;;;;;5.90;3.27;;;18.60;90.00;;;;;;5054592;28;20448;-86
2022/05/12 04:07:17;;;;;;;5.23;3.07;;;18.40;90.40;;;;;;5054246;28;20460;-86
2022/05/12 04:09:42;;;;;;;3.97;3.57;;;18.20;90.90;;;;;;5054230;28;20423;-87
2022/05/12 04:12:11;;;;;;;5.67;3.37;;;18.10;91.30;;;;;;5072179;28;20838;-86
2022/05/12 04:14:39;;;;;;;4.93;3.53;;;18.00;92.00;;;;;;5037570;28;20179;-86
2022/05/12 04:17:06;;;;;;;6.30;3.20;;;17.90;92.30;;;;;;5054122;28;20432;-88
2022/05/12 04:19:32;;;;;;;3.53;2.70;;;18.10;91.70;;;;;;5037224;28;20436;-87
2022/05/12 04:21:57;;;;;;;6.80;3.23;;;17.90;91.10;;;;;;5036705;28;20647;-87
2022/05/12 04:24:24;;;;;;;3.63;2.67;;;17.90;92.20;;;;;;5036349;28;20260;-88
2022/05/12 04:26:50;;;;;;;7.57;3.30;;;17.80;93.10;;;;;;5017806;28;20996;-87
2022/05/12 04:29:17;;;;;;;5.03;2.90;;;18.00;92.20;;;;;;5017329;28;20474;-87
2022/05/12 04:31:42;;;;;;;2.60;2.40;;;18.30;91.20;;;;;;5033411;28;20424;-86
2022/05/12 04:36:53;;;;;;;4.00;2.70;;;18.30;90.70;;;;;;5068205;28;20166;-87
2022/05/12 04:39:20;;;;;;;6.83;2.50;;;18.40;90.20;;;;;;5049637;28;20426;-88
2022/05/12 04:41:47;;;;;;;5.00;2.57;;;18.50;90.20;;;;;;5034007;28;20422;-88
2022/05/12 04:44:13;;;;;;;4.23;2.40;;;18.60;90.40;;;;;;5033402;28;20435;-86
2022/05/12 04:46:40;;;;;;;4.33;2.40;;;18.60;90.60;;;;;;5049874;28;20479;-86
2022/05/12 04:49:08;;;;;;;4.17;2.53;;;18.70;91.10;;;;;;5033243;28;20476;-86
2022/05/12 04:51:34;;;;;;;4.77;2.40;;;18.70;91.80;;;;;;5067858;28;20819;-86
2022/05/12 04:54:00;;;;;;;8.73;2.30;;;18.70;91.40;;;;;;5033611;28;20432;-86
2022/05/12 04:56:26;;;;;;;2.80;2.53;;;18.80;90.80;;;;;;5049649;28;20447;-86
2022/05/12 04:58:52;;;;;;;5.57;2.70;;;18.80;90.70;;;;;;5068003;28;20459;-86
2022/05/12 05:01:18;;;;;;;7.10;2.30;;;19.00;89.30;;;;;;5033223;28;21030;-85
2022/05/12 05:03:44;;;;;;;8.07;3.00;;;19.00;89.10;;;;;;5033058;28;20893;-87
2022/05/12 05:06:10;;;;;;;2.60;2.40;;;19.10;89.60;;;;;;5032471;28;20753;-84
2022/05/12 05:08:36;;;;;;;3.93;2.50;;;19.00;89.50;;;;;;5049484;28;20198;-84
2022/05/12 05:11:04;;;;;;;4.33;2.30;;;19.10;89.70;;;;;;5033325;28;20418;-85
2022/05/12 05:13:30;;;;;;;7.33;2.70;;;19.20;90.60;;;;;;5050910;28;20421;-86
2022/05/12 05:15:56;;;;;;;9.37;2.93;;;19.20;91.30;;;;;;5050274;28;20553;-85
2022/05/12 05:18:23;;;;;;;4.73;3.10;;;19.30;90.20;;;;;;5050054;28;20543;-84
2022/05/12 05:20:49;;;;;;;3.17;2.30;;;19.40;89.40;;;;;;5049790;28;20432;-85
2022/05/12 05:23:16;;;;;;;3.00;2.60;;;19.40;88.40;;;;;;5067719;28;20499;-86
2022/05/12 05:25:43;;;;;;;4.27;2.77;;;19.50;89.50;;;;;;5049153;28;20441;-85
2022/05/12 05:28:10;;;;;;;7.70;2.70;;;19.50;90.30;;;;;;5032729;28;20515;-85
2022/05/12 05:30:37;;;;;;;5.40;2.67;;;19.60;90.00;;;;;;5049224;28;20416;-85
2022/05/12 05:33:03;;;;;;;3.07;2.70;;;19.70;91.10;;;;;;5048731;28;20410;-84
2022/05/12 05:35:29;;;;;;;5.00;2.60;;;19.80;90.70;;;;;;5032344;28;20445;-86
2022/05/12 05:37:55;;;;;;;6.10;2.90;;;19.90;91.30;;;;;;5031966;28;20474;-84
2022/05/12 05:40:28;;;;;;;7.83;2.80;;;19.90;90.60;;;;;;5032387;28;20427;-84
2022/05/12 05:42:55;;;;;;;3.17;2.80;;;20.00;90.80;;;;;;5047790;28;20424;-85
2022/05/12 05:45:22;;;;;;;9.93;2.87;;;20.10;90.30;;;;;;5049001;28;20504;-85
2022/05/12 05:47:51;;;;;;;7.17;2.53;;;20.10;90.30;;;;;;5048208;28;20463;-85
2022/05/12 05:50:22;;;;;;;2.97;2.67;;;20.20;91.50;;;;;;5066717;28;20821;-88
2022/05/12 05:55:32;;;;;;;3.87;2.60;;;20.30;90.90;;;;;;5052317;28;20889;-85
2022/05/12 05:58:00;;;;;;;2.83;2.63;;;20.40;92.00;;;;;;5032967;28;20425;-83
2022/05/12 06:00:26;;;;;;;3.87;2.60;;;20.50;92.60;;;;;;5048225;28;20506;-85
2022/05/12 06:02:52;;;;;;;7.83;2.40;;;20.50;92.30;;;;;;5032310;28;20943;-85
2022/05/12 06:05:18;;;;;;;8.43;3.50;;;20.40;90.70;;;;;;5048855;28;20468;-86
2022/05/12 06:07:44;;;;;;;3.50;2.70;;;20.40;92.30;;;;;;5048610;28;20226;-84
2022/05/12 06:10:11;;;;;;;4.30;2.70;;;20.40;93.40;;;;;;5032707;28;20232;-83
2022/05/12 06:12:38;;;;;;;3.07;2.40;;;20.40;94.30;;;;;;5048944;28;20425;-84
2022/05/12 06:15:05;;;;;;;4.87;3.27;;;20.30;95.00;;;;;;5031975;28;20802;-83
2022/05/12 06:17:31;;;;;;;4.80;2.23;;;20.30;94.80;;;;;;5050213;28;21341;-85
2022/05/12 06:19:57;;;;;;;3.43;2.43;;;20.30;94.60;;;;;;5052871;28;21005;-83
2022/05/12 06:22:23;;;;;;;6.20;2.57;;;20.30;94.50;;;;;;5052472;28;20428;-84
2022/05/12 06:24:49;;;;;;;2.20;1.97;;;20.50;94.00;;;;;;5052668;28;20207;-85
2022/05/12 06:27:19;;;;;;;2.70;2.50;;;20.60;93.40;;;;;;5052959;28;20417;-84
2022/05/12 06:29:46;;;;;;;3.40;2.20;;;20.80;93.50;;;;;;5053028;28;20989;-84
2022/05/12 06:32:12;;;;;;;3.23;2.93;;;20.90;94.10;;;;;;5035779;28;20479;-84
2022/05/12 06:34:42;;;;;;;3.30;2.60;;;21.00;94.10;;;;;;5035058;28;20436;-84
2022/05/12 06:39:35;;;;;;;2.77;2.57;;;21.30;93.40;;;;;;5009053;28;20554;-70
2022/05/12 06:42:01;;;;;;;7.27;2.47;;;21.00;92.30;;;;;;5010622;28;20841;-70
2022/05/12 06:44:27;;;;;;;6.53;3.73;;;21.00;92.30;;;;;;4992982;28;20180;-70
2022/05/12 06:46:53;;;;;;;5.57;2.40;;;21.20;94.70;;;;;;5010388;28;20924;-70
2022/05/12 06:49:19;;;;;;;2.70;2.40;;;21.30;92.20;;;;;;5010318;28;20474;-71
2022/05/12 06:51:45;;;;;;;3.50;2.30;;;21.40;94.40;;;;;;4992572;28;20436;-70
2022/05/12 06:54:11;;;;;;;3.10;2.60;;;21.60;94.50;;;;;;4976349;28;20432;-70
2022/05/12 06:56:37;;;;;;;3.07;2.33;;;21.80;93.50;;;;;;5009738;28;20201;-71
2022/05/12 06:59:03;;;;;;;6.63;2.87;;;21.80;94.10;;;;;;4991317;28;20498;-71
2022/05/12 07:01:29;;;;;;;4.80;2.70;;;21.70;93.90;;;;;;4991654;28;20430;-71
2022/05/12 07:03:57;;;;;;;8.93;2.97;;;21.80;94.00;;;;;;4991218;28;20435;-71
2022/05/12 07:06:22;;;;;;;4.10;2.97;;;22.00;94.10;;;;;;5008984;28;20444;-71
2022/05/12 07:08:49;;;;;;;3.20;2.63;;;21.80;93.80;;;;;;5022701;22;20882;-79
2022/05/12 07:11:16;;;;;;;3.27;1.90;;;21.90;94.10;;;;;;5011555;28;20184;-80
2022/05/12 07:13:42;;;;;;;10.73;2.60;;;22.00;92.10;;;;;;5011288;28;20435;-80
2022/05/12 07:16:09;;;;;;;3.50;2.70;;;22.00;92.90;;;;;;4991628;28;21011;-80
2022/05/12 07:18:36;;;;;;;4.17;3.20;;;22.20;92.60;;;;;;4991511;28;20186;-81
2022/05/12 07:26:35;;;;;;;5.23;2.87;;;22.60;91.40;;;;;;5007769;28;20447;-81
2022/05/12 07:29:07;;;;;;;5.47;2.50;;;22.40;91.40;;;;;;5007164;28;20507;-79
2022/05/12 07:31:33;;;;;;;3.23;2.93;;;22.30;93.40;;;;;;4990990;28;20448;-81
2022/05/12 07:33:58;;;;;;;7.43;2.37;;;22.50;92.80;;;;;;4990936;28;20461;-80
2022/05/12 07:36:30;;;;;;;9.60;2.73;;;22.50;92.30;;;;;;5006864;28;20232;-80
2022/05/12 07:38:56;;;;;;;8.30;2.97;;;22.60;92.60;;;;;;5006997;28;20461;-81
2022/05/12 07:41:23;;;;;;;4.00;2.70;;;22.60;92.00;;;;;;5007098;28;20445;-83
2022/05/12 07:43:51;;;;;;;4.37;2.97;;;22.50;91.70;;;;;;5008879;28;20532;-80
2022/05/12 07:46:21;;;;;;;7.00;2.83;;;22.50;91.80;;;;;;5008456;28;20575;-80
2022/05/12 07:48:48;;;;;;;5.23;2.70;;;22.60;93.00;;;;;;5006866;28;20603;-79
2022/05/12 07:51:15;;;;;;;8.00;3.13;;;22.80;92.90;;;;;;5006732;28;20490;-79
2022/05/12 07:53:41;;;;;;;8.27;2.83;;;22.90;93.00;;;;;;5006876;28;20575;-79
2022/05/12 07:56:08;;;;;;;3.70;3.10;;;22.90;91.60;;;;;;4990362;28;21275;-79
2022/05/12 07:58:35;;;;;;;6.37;3.37;;;23.00;92.20;;;;;;4990277;28;20429;-80
2022/05/12 08:01:00;;;;;;;6.60;3.00;;;23.10;92.40;;;;;;5008232;28;20424;-80
2022/05/12 08:03:26;;;;;;;11.57;3.80;;;23.00;93.60;;;;;;4990196;28;20424;-80
2022/05/12 08:05:53;;;;;;;5.67;3.50;;;23.00;92.60;;;;;;4990246;28;20234;-79
2022/05/12 08:08:19;;;;;;;7.53;3.10;;;22.90;92.40;;;;;;4990283;28;20505;-79
2022/05/12 08:10:45;;;;;;;6.50;2.97;;;22.80;93.50;;;;;;4990182;28;21100;-80
2022/05/12 08:13:17;;;;;;;14.57;3.87;;;22.90;93.00;;;;;;4990284;28;20191;-80
2022/05/12 08:15:50;;;;;;;11.73;3.80;;;23.10;92.90;;;;;;4990046;28;20234;-80
2022/05/12 08:18:17;;;;;;;7.67;3.13;;;23.20;92.20;;;;;;5006833;28;20521;-77
2022/05/12 08:20:44;;;;;;;7.70;3.60;;;23.20;91.90;;;;;;5006589;28;20424;-79
2022/05/12 08:23:10;;;;;;;8.80;3.20;;;23.10;91.70;;;;;;5007987;28;20417;-80
2022/05/12 08:25:36;;;;;;;10.63;3.67;;;23.20;92.90;;;;;;5006650;28;21294;-79
2022/05/12 08:28:02;;;;;;;5.90;3.07;;;23.20;93.60;;;;;;4990327;28;20528;-79
2022/05/12 08:30:29;;;;;;;4.83;3.10;;;23.20;92.40;;;;;;5006623;28;20659;-80
2022/05/12 08:32:56;;;;;;;11.30;3.20;;;23.30;91.70;;;;;;5008525;28;20176;-80
2022/05/12 08:35:22;;;;;;;4.70;3.23;;;23.60;93.90;;;;;;5006986;28;20521;-82
2022/05/12 08:37:48;;;;;;;3.20;2.60;;;23.90;92.50;;;;;;4990228;28;20627;-80
2022/05/12 08:40:22;;;;;;;7.07;3.27;;;23.50;90.10;;;;;;4989654;28;20507;-79
2022/05/12 08:42:48;;;;;;;2.97;2.70;;;23.50;91.70;;;;;;5008082;28;20189;-78
2022/05/12 08:45:18;;;;;;;5.10;3.50;;;23.50;91.70;;;;;;4989850;28;20450;-78
2022/05/12 08:47:47;;;;;;;14.17;3.93;;;23.60;91.60;;;;;;4989546;28;20218;-78
2022/05/12 08:50:29;;;;;;;4.47;3.00;;;23.70;90.40;;;;;;5006427;28;20436;-79
2022/05/12 08:53:05;;;;;;;4.60;2.90;;;23.80;90.70;;;;;;4990082;28;20428;-78
2022/05/12 08:55:39;;;;;;;12.40;3.70;;;24.10;91.50;;;;;;5007174;28;20512;-78
2022/05/12 08:58:14;;;;;;;5.90;3.07;;;24.30;90.00;;;;;;5005921;28;20522;-78
2022/05/12 09:01:00;;;;;;;3.53;2.50;;;24.70;90.70;;;;;;4989652;28;20430;-77
2022/05/12 09:03:47;;;;;;;8.37;3.33;;;24.80;91.40;;;;;;5007518;28;20423;-78
2022/05/12 09:06:26;;;;;;;5.73;3.30;;;25.20;91.60;;;;;;5006416;28;20451;-77
2022/05/12 09:09:09;;;;;;;3.67;2.90;;;25.40;85.80;;;;;;5007606;28;20493;-80
2022/05/12 09:11:50;;;;;;;6.43;2.83;;;25.70;84.90;;;;;;5007755;28;20453;-79
2022/05/12 09:14:40;;;;;;;5.10;3.30;;;26.00;85.30;;;;;;5006335;28;20434;-79
2022/05/12 09:17:08;;;;;;;5.67;3.30;;;26.00;83.40;;;;;;5006221;28;20423;-79
2022/05/12 09:19:35;;;;;;;3.30;2.97;;;26.00;85.40;;;;;;4989855;28;20443;-78
2022/05/12 09:22:01;;;;;;;6.33;3.10;;;26.00;86.40;;;;;;5006163;28;20440;-78
2022/05/12 09:24:28;;;;;;;6.73;2.57;;;26.00;83.40;;;;;;5007224;28;20521;-77
2022/05/12 09:27:14;;;;;;;5.33;3.40;;;26.20;84.20;;;;;;4989688;28;20521;-78
2022/05/12 09:29:50;;;;;;;4.53;3.40;;;26.60;81.80;;;;;;5007420;28;20219;-77
2022/05/12 09:32:25;;;;;;;4.73;3.20;;;26.70;80.60;;;;;;5009173;28;20395;-78
2022/05/12 09:35:09;;;;;;;3.93;2.83;;;26.80;81.50;;;;;;5009317;28;20458;-77
2022/05/12 09:37:37;;;;;;;4.70;3.20;;;27.20;81.00;;;;;;5010367;28;20416;-77
2022/05/12 09:40:21;;;;;;;6.80;3.30;;;27.30;80.50;;;;;;5008761;28;20435;-79
2022/05/12 09:42:51;;;;;;;4.13;3.40;;;27.40;80.30;;;;;;5008653;28;20421;-77
2022/05/12 09:45:28;;;;;;;4.03;3.13;;;27.10;77.80;;;;;;5008653;28;20570;-77
2022/05/12 09:48:12;;;;;;;5.83;3.00;;;27.10;78.70;;;;;;4990917;28;20594;-79
2022/05/12 09:50:38;;;;;;;11.73;3.87;;;27.30;75.60;;;;;;5008979;28;20486;-78
2022/05/12 09:53:08;;;;;;;3.40;3.10;;;27.10;80.20;;;;;;5010060;28;20431;-78
2022/05/12 09:55:55;;;;;;;3.43;3.07;;;26.60;77.10;;;;;;4993647;28;20440;-81
2022/05/12 09:58:36;;;;;;;6.40;3.40;;;26.80;80.60;;;;;;5011142;28;20439;-79
2022/05/12 10:01:11;;;;;;;5.90;2.90;;;27.00;79.50;;;;;;5009598;28;20423;-78
2022/05/12 10:09:21;;;;;;;6.97;3.87;;;26.80;80.90;;;;;;5011375;28;20602;-78
2022/05/12 10:12:08;;;;;;;9.03;3.80;;;27.00;79.40;;;;;;5009970;28;20986;-79
2022/05/12 10:14:46;;;;;;;4.27;3.87;;;27.00;81.40;;;;;;5009565;28;20517;-78
2022/05/12 10:17:37;;;;;;;6.23;4.27;;;27.00;77.60;;;;;;5011215;28;20420;-78
2022/05/12 10:20:10;;;;;;;8.53;4.47;;;27.00;78.40;;;;;;5009790;28;20454;-78
2022/05/12 10:23:03;;;;;;;7.07;4.20;;;26.90;78.50;;;;;;5009822;28;20420;-78
2022/05/12 10:26:02;;;;;;;7.37;3.50;;;27.20;77.80;;;;;;5011069;28;20828;-80
2022/05/12 10:28:54;;;;;;;7.00;4.20;;;27.70;76.10;;;;;;5010979;28;20971;-78
2022/05/12 10:31:45;;;;;;;5.67;4.30;;;28.00;76.00;;;;;;5008948;28;20466;-79
2022/05/12 10:34:27;;;;;;;12.53;4.43;;;28.00;73.90;;;;;;5009422;28;20828;-79
2022/05/12 10:37:18;;;;;;;4.67;3.80;;;28.60;75.90;;;;;;5009600;28;20501;-78
2022/05/12 10:40:26;;;;;;;13.47;5.07;;;28.20;71.40;;;;;;4992892;28;20848;-79
2022/05/12 10:43:33;;;;;;;5.90;3.63;;;28.60;71.50;;;;;;4999819;28;20439;-79
2022/05/12 10:46:15;;;;;;;6.30;4.10;;;29.00;71.40;;;;;;4972476;28;20467;-79
2022/05/12 10:48:44;;;;;;;4.13;3.63;;;29.20;71.10;;;;;;5010023;28;21292;-78
2022/05/12 10:51:34;;;;;;;9.23;4.00;;;29.40;71.20;;;;;;5008574;28;20428;-77
2022/05/12 10:54:22;;;;;;;9.90;4.40;;;29.50;68.30;;;;;;5008478;28;20799;-78
2022/05/12 10:57:30;;;;;;;9.10;3.90;;;29.70;69.20;;;;;;5009481;28;20491;-78
2022/05/12 11:00:26;;;;;;;7.90;4.10;;;29.90;69.70;;;;;;4991616;28;20514;-78
2022/05/12 11:02:57;;;;;;;7.40;4.97;;;29.60;66.50;;;;;;4990903;28;21013;-79
2022/05/12 11:05:34;;;;;;;6.60;4.83;;;29.20;65.10;;;;;;4991463;28;20440;-79
2022/05/12 11:08:22;;;;;;;4.67;4.27;;;29.10;68.60;;;;;;5007691;28;20474;-79
2022/05/12 11:10:51;;;;;;;10.10;3.77;;;29.70;70.60;;;;;;5007450;28;20481;-80
2022/05/12 11:13:40;;;;;;;4.70;4.30;;;29.70;67.90;;;;;;5007754;28;20447;-79
2022/05/12 11:16:18;;;;;;;6.60;4.03;;;30.00;64.50;;;;;;5007657;28;20479;-81
2022/05/12 11:19:16;;;;;;;7.17;3.90;;;29.90;64.60;;;;;;5009196;28;20413;-80
2022/05/12 11:22:17;;;;;;;4.00;3.60;;;30.00;70.30;;;;;;4991162;28;20428;-78
2022/05/12 11:25:13;;;;;;;4.10;3.70;;;29.90;69.20;;;;;;4980435;28;20443;-79
2022/05/12 11:27:46;;;;;;;5.13;3.70;;;30.00;66.90;;;;;;5007295;28;20886;-79
2022/05/12 11:30:24;;;;;;;5.83;3.60;;;29.40;66.10;;;;;;5007394;28;20535;-79
2022/05/12 11:33:02;;;;;;;7.90;4.00;;;29.20;67.40;;;;;;5008688;28;20422;-79
2022/05/12 11:35:54;;;;;;;4.30;3.90;;;28.60;70.00;;;;;;5008805;28;20443;-78
2022/05/12 11:38:39;;;;;;;6.70;4.40;;;28.40;68.50;;;;;;4990845;28;20459;-79
2022/05/12 11:41:27;;;;;;;10.50;4.10;;;28.70;66.50;;;;;;5007333;28;20432;-79
2022/05/12 11:44:24;;;;;;;6.93;3.80;;;29.20;68.50;;;;;;5008619;28;20424;-81
2022/05/12 11:47:15;;;;;;;6.00;4.20;;;29.50;66.20;;;;;;5007242;28;20447;-79
2022/05/12 11:50:13;;;;;;;4.77;3.77;;;29.90;64.20;;;;;;5008631;28;20471;-79
2022/05/12 11:52:48;;;;;;;4.80;4.17;;;30.10;64.90;;;;;;5007003;28;20433;-80
2022/05/12 11:55:28;;;;;;;4.10;3.43;;;30.40;64.00;;;;;;5007011;28;20451;-79
2022/05/12 11:58:06;;;;;;;6.73;4.23;;;30.00;65.10;;;;;;4990511;28;20439;-80
2022/05/12 12:00:54;;;;;;;4.37;3.90;;;29.50;66.50;;;;;;4990672;28;20465;-81
2022/05/12 12:03:23;;;;;;;5.70;3.17;;;29.40;67.70;;;;;;5008269;28;20421;-78
2022/05/12 12:05:48;;;;;;;5.40;4.03;;;29.30;64.50;;;;;;5006704;28;20463;-79
2022/05/12 12:08:32;;;;;;;8.93;4.23;;;28.70;66.70;;;;;;5006860;28;20486;-78
2022/05/12 12:11:13;;;;;;;5.57;3.80;;;28.40;65.90;;;;;;5006630;28;20195;-80
2022/05/12 12:13:46;;;;;;;12.60;3.93;;;28.00;65.90;;;;;;5007992;28;20436;-79
2022/05/12 12:16:18;;;;;;;4.07;3.67;;;28.00;66.70;;;;;;4992219;28;20467;-80
2022/05/12 12:18:58;;;;;;;3.90;3.50;;;28.50;70.80;;;;;;5008997;28;20440;-80
2022/05/12 12:21:42;;;;;;;3.70;3.40;;;28.50;68.40;;;;;;5008554;28;20507;-81
2022/05/12 12:24:20;;;;;;;4.30;3.73;;;28.70;70.70;;;;;;5009268;28;20427;-79
2022/05/12 12:26:55;;;;;;;7.47;4.47;;;28.80;68.30;;;;;;5008816;28;20447;-79
2022/05/12 12:29:38;;;;;;;10.50;4.23;;;29.10;69.90;;;;;;4991530;28;20463;-79
2022/05/12 12:32:30;;;;;;;6.33;3.73;;;28.90;68.00;;;;;;5008845;28;20536;-80
2022/05/12 12:35:10;;;;;;;4.43;4.03;;;28.60;68.10;;;;;;4992110;28;21045;-81
2022/05/12 12:37:41;;;;;;;9.40;4.10;;;28.30;69.80;;;;;;5008135;28;20420;-79
2022/05/12 12:40:32;;;;;;;9.43;4.10;;;28.40;72.20;;;;;;5006271;28;20421;-79
2022/05/12 12:43:24;;;;;;;9.50;4.43;;;28.70;71.80;;;;;;5006135;28;20425;-79
2022/05/12 12:45:52;;;;;;;6.30;3.77;;;28.50;70.20;;;;;;5006305;28;20436;-80
2022/05/12 12:48:34;;;;;;;7.40;4.27;;;28.30;72.10;;;;;;5006100;28;20556;-76
2022/05/12 12:51:01;;;;;;;5.37;4.87;;;28.20;69.20;;;;;;5003401;28;20466;-80
2022/05/12 12:56:32;;;;;;;10.10;4.20;;;28.70;68.80;;;;;;5007899;28;20467;-80
2022/05/12 12:59:11;;;;;;;7.00;4.13;;;28.30;67.10;;;;;;5007617;28;20423;-80
2022/05/12 13:02:00;;;;;;;10.70;4.63;;;27.90;68.20;;;;;;4989970;28;20424;-81
2022/05/12 13:04:35;;;;;;;6.90;4.37;;;27.60;69.90;;;;;;4990264;28;20518;-79
2022/05/12 13:07:07;;;;;;;7.53;4.40;;;27.90;75.20;;;;;;5006649;28;20423;-79
2022/05/12 13:09:37;;;;;;;11.63;4.43;;;28.10;71.70;;;;;;5006461;28;20494;-81
2022/05/12 13:12:29;;;;;;;5.03;4.53;;;27.90;69.50;;;;;;4990245;28;20505;-78
2022/05/12 13:15:00;;;;;;;5.33;3.97;;;27.70;66.40;;;;;;4987552;28;20444;-79
2022/05/12 13:17:28;;;;;;;12.40;4.30;;;27.40;65.90;;;;;;4990475;28;20806;-79
2022/05/12 13:19:59;;;;;;;9.03;4.33;;;27.20;65.10;;;;;;5007546;28;20431;-79
2022/05/12 13:22:44;;;;;;;7.10;4.23;;;27.00;65.20;;;;;;5006391;28;20511;-77
2022/05/12 13:25:13;;;;;;;9.20;4.17;;;27.00;68.10;;;;;;5008203;28;20436;-80
2022/05/12 13:27:41;;;;;;;4.43;4.03;;;26.80;66.30;;;;;;4993675;28;20448;-79
2022/05/12 13:30:16;;;;;;;7.40;4.63;;;26.80;66.60;;;;;;5010076;28;20424;-80